Archival Weather

South Haven Area Rgnl

South Haven, Michigan (KLWA)

Report from: Thursday, September 21, 2023 6:15 PM EDT
Current time: Sunday, July 14, 2024 5:53 AM EDT

Current weather – Weather history – Daily summaries
Weather forecast

Temperature23.2°C (73.8°F)
Dew point18.3°C (64.9°F)
Winds Calm
Visibility10 mi. (16.1 km)
Clouds Sky clear
Altimeter30.20 in.Hg (1023 mB)
Relative humidity74 %
Density altitude923 ft. (281 m)
Remarks Fully automated report
Automated weather observing station with precipitation discriminator
Flight conditions Visual Meteorological Conditions
Raw dataKLWA 212215Z AUTO 00000KT 10SM CLR 23/18 A3020 RMK AO2 T02320183
An error has occurred. This application may no longer respond until reloaded. Reload 🗙